Time;durP1;ratioP1;P1;durP2;ratioP2;P2;SDS_P1;SDS_P2;PMS_P1;PMS_P2;Temp;Humidity;BMP_temperature;BMP_pressure;BME280_temperature;BME280_humidity;BME280_pressure;Samples;Min_cycle;Max_cycle;Signal;HPM_P1;HPM_P2
2022/12/17 13:09:58;;;;;;;55.78;25.38;;;;;;;-4.36;62.06;101033.41;10370203;28;20059;-79
2022/12/17 13:15:14;;;;;;;57.38;25.90;;;;;;;-4.24;61.68;101028.50;10372446;28;20701;-80
2022/12/17 13:20:34;;;;;;;66.28;27.55;;;;;;;-4.38;61.67;101037.63;10369776;28;20058;-79
2022/12/17 13:25:36;;;;;;;53.65;24.92;;;;;;;-4.45;61.89;101028.16;10369758;28;20061;-79
2022/12/17 13:30:45;;;;;;;56.40;26.08;;;;;;;-4.52;61.39;101031.41;10368769;28;20046;-79
2022/12/17 13:35:56;;;;;;;54.00;26.02;;;;;;;-4.50;61.95;101028.91;10370429;28;20063;-79
2022/12/17 13:41:13;;;;;;;56.65;26.40;;;;;;;-4.75;61.89;101025.88;10373007;28;20064;-79
2022/12/17 13:46:23;;;;;;;53.65;25.60;;;;;;;-4.53;62.47;101037.38;10350307;28;20054;-80
2022/12/17 13:51:31;;;;;;;53.53;25.05;;;;;;;-4.73;61.85;101036.13;10364496;28;20107;-80
2022/12/17 13:56:36;;;;;;;59.85;26.80;;;;;;;-4.81;62.33;101035.97;10362309;28;20064;-80
2022/12/17 14:01:47;;;;;;;55.13;25.63;;;;;;;-4.70;62.28;101046.38;10350334;28;20053;-80
2022/12/17 14:06:51;;;;;;;57.22;26.52;;;;;;;-4.99;62.46;101037.31;10365782;28;20133;-79
2022/12/17 14:17:17;;;;;;;51.78;25.52;;;;;;;-4.78;62.92;101046.25;10365946;28;20063;-78
2022/12/17 14:22:45;;;;;;;53.03;25.67;;;;;;;-4.72;62.41;101048.06;10352794;28;20427;-77
2022/12/17 14:27:55;;;;;;;56.40;24.65;;;;;;;-5.04;62.49;101054.19;10365121;28;20050;-77
2022/12/17 14:32:57;;;;;;;64.45;28.10;;;;;;;-5.08;62.92;101058.38;10368315;28;20049;-77
2022/12/17 14:37:59;;;;;;;60.42;27.15;;;;;;;-5.03;63.14;101066.09;10366681;28;20455;-78
2022/12/17 14:43:01;;;;;;;62.63;27.45;;;;;;;-5.03;62.97;101058.47;10374872;28;20045;-78
2022/12/17 14:48:05;;;;;;;68.05;29.00;;;;;;;-5.04;62.94;101064.41;10378413;28;20522;-78
2022/12/17 14:53:25;;;;;;;61.47;28.92;;;;;;;-5.42;63.37;101056.78;10375121;28;20060;-78
2022/12/17 14:58:27;;;;;;;59.72;28.95;;;;;;;-5.27;63.52;101057.94;10378038;28;20054;-78
2022/12/17 15:03:32;;;;;;;58.08;26.75;;;;;;;-5.17;63.54;101070.06;10380872;28;20053;-79
2022/12/17 15:08:40;;;;;;;64.72;29.92;;;;;;;-5.29;63.25;101069.78;10359214;28;20146;-78
2022/12/17 15:13:42;;;;;;;62.97;27.85;;;;;;;-5.27;63.40;101068.13;10360411;28;20057;-78
2022/12/17 15:18:44;;;;;;;65.60;28.70;;;;;;;-5.45;63.59;101072.03;10369576;28;20054;-78
2022/12/17 15:23:46;;;;;;;63.40;27.33;;;;;;;-5.48;63.85;101071.06;10362229;28;20053;-78
2022/12/17 15:28:48;;;;;;;61.08;27.42;;;;;;;-5.37;64.05;101078.16;10376862;28;20148;-78
2022/12/17 15:33:49;;;;;;;60.30;27.48;;;;;;;-5.32;63.73;101085.03;10375816;28;20054;-79
2022/12/17 15:38:51;;;;;;;63.63;27.00;;;;;;;-5.53;64.08;101078.63;10377655;28;20590;-79
2022/12/17 15:43:53;;;;;;;67.63;29.63;;;;;;;-5.61;64.11;101089.47;10379373;28;20077;-79
2022/12/17 15:48:55;;;;;;;78.18;29.67;;;;;;;-5.28;64.33;101104.69;10374098;28;20058;-79
2022/12/17 15:53:58;;;;;;;90.13;38.05;;;;;;;-5.38;64.17;101107.00;10365465;28;20085;-79
2022/12/17 15:59:00;;;;;;;105.75;48.65;;;;;;;-5.25;64.13;101117.47;10359877;28;20066;-79
2022/12/17 16:04:02;;;;;;;67.25;25.73;;;;;;;-5.36;64.17;101107.06;10360751;28;20064;-79
2022/12/17 16:09:04;;;;;;;98.05;27.70;;;;;;;-5.29;64.17;101118.25;10373723;28;20066;-79
2022/12/17 16:14:05;;;;;;;101.97;27.92;;;;;;;-5.51;64.54;101122.84;10375345;28;20344;-79
2022/12/17 16:19:07;;;;;;;212.95;31.60;;;;;;;-5.66;64.49;101137.75;10357347;28;20065;-79
2022/12/17 16:24:09;;;;;;;118.88;29.00;;;;;;;-5.71;64.88;101139.34;10377120;28;20084;-79
2022/12/17 16:29:11;;;;;;;103.53;29.08;;;;;;;-5.77;65.09;101139.22;10377603;28;20526;-79
2022/12/17 16:34:13;;;;;;;122.88;30.88;;;;;;;-5.48;65.11;101140.75;10371155;28;20422;-79
2022/12/17 16:39:18;;;;;;;105.32;29.58;;;;;;;-5.44;64.75;101134.91;10371849;28;20050;-78
2022/12/17 16:44:19;;;;;;;78.88;28.00;;;;;;;-5.46;64.85;101141.66;10368178;28;20411;-78
2022/12/17 16:49:31;;;;;;;127.78;30.65;;;;;;;-5.41;64.77;101151.97;10351872;28;20068;-83
2022/12/17 16:54:39;;;;;;;74.70;30.17;;;;;;;-5.37;65.12;101152.06;10367079;28;20124;-85
2022/12/17 16:59:55;;;;;;;121.80;34.28;;;;;;;-5.39;64.84;101147.75;10358493;28;20127;-83
2022/12/17 17:05:19;;;;;;;92.20;30.45;;;;;;;-5.45;65.17;101151.03;10356590;28;20457;-83
2022/12/17 17:10:28;;;;;;;136.85;30.30;;;;;;;-5.47;64.88;101150.13;10347083;28;20057;-83
2022/12/17 17:36:04;;;;;;;62.28;24.50;;;;;;;-5.62;65.66;101171.81;10364023;28;20045;-86
2022/12/17 17:42:17;;;;;;;107.88;28.10;;;;;;;-5.51;65.39;101158.53;10354027;28;20061;-87
2022/12/17 17:47:23;;;;;;;112.10;27.67;;;;;;;-5.40;65.51;101162.19;10374105;28;20148;-84
2022/12/17 17:52:26;;;;;;;189.68;28.70;;;;;;;-5.61;65.55;101164.25;10350903;28;20471;-85
2022/12/17 17:57:30;;;;;;;94.03;29.40;;;;;;;-5.84;65.84;101164.47;10351441;28;20068;-84
2022/12/17 18:02:32;;;;;;;189.30;32.65;;;;;;;-5.69;65.96;101168.28;10358669;28;20050;-86
2022/12/17 18:07:34;;;;;;;188.77;33.08;;;;;;;-5.46;65.79;101174.78;10356300;28;20443;-84
2022/12/17 18:18:01;;;;;;;92.72;31.73;;;;;;;-5.43;65.80;101179.97;10376551;28;20061;-83
2022/12/17 18:23:08;;;;;;;149.90;35.33;;;;;;;-5.38;65.70;101175.00;10376205;28;20061;-83
2022/12/17 18:28:13;;;;;;;102.28;30.48;;;;;;;-5.32;65.69;101179.38;10361988;28;20723;-84
2022/12/17 18:33:15;;;;;;;89.57;31.90;;;;;;;-5.26;65.56;101179.50;10360462;28;21138;-85
2022/12/17 18:52:09;;;;;;;89.80;31.23;;;;;;;-5.55;65.81;101174.59;10132362;29;20455;-87
2022/12/17 18:57:23;;;;;;;120.82;29.65;;;;;;;-5.47;66.09;101184.94;10147349;29;20167;-79
2022/12/17 19:02:26;;;;;;;81.93;31.48;;;;;;;-5.27;65.86;101183.75;10219098;28;20057;-78
2022/12/17 19:07:28;;;;;;;84.85;31.73;;;;;;;-5.04;65.47;101181.72;10359630;28;20056;-79
2022/12/17 19:12:30;;;;;;;80.43;31.02;;;;;;;-4.94;65.51;101181.09;10359796;28;20045;-78
2022/12/17 19:17:32;;;;;;;91.15;33.28;;;;;;;-4.94;65.11;101188.75;10360308;28;20562;-79
2022/12/17 19:22:33;;;;;;;86.72;32.88;;;;;;;-4.94;65.17;101186.22;10366717;28;20049;-79
2022/12/17 19:27:35;;;;;;;82.90;32.30;;;;;;;-4.96;65.23;101183.63;10370014;28;20526;-79
2022/12/17 19:32:38;;;;;;;75.95;30.02;;;;;;;-4.98;65.43;101181.88;10371462;28;20066;-79
2022/12/17 19:37:43;;;;;;;89.97;31.38;;;;;;;-5.08;65.30;101179.94;10350276;28;20418;-79
2022/12/17 19:42:45;;;;;;;109.90;34.38;;;;;;;-5.11;65.55;101179.84;10367681;28;20049;-79
2022/12/17 19:47:49;;;;;;;122.88;32.03;;;;;;;-5.17;65.43;101200.97;10364253;28;20058;-79
2022/12/17 19:52:50;;;;;;;131.40;34.13;;;;;;;-5.16;65.59;101197.63;10367008;28;20049;-79
2022/12/17 19:58:00;;;;;;;91.88;31.63;;;;;;;-5.02;65.58;101197.94;10364201;28;20058;-78
2022/12/17 20:03:02;;;;;;;86.03;32.47;;;;;;;-4.89;65.37;101197.41;10350691;28;20408;-78
2022/12/17 20:08:04;;;;;;;116.97;32.72;;;;;;;-4.70;65.17;101214.81;10352827;28;20148;-78
2022/12/17 20:13:06;;;;;;;105.30;35.10;;;;;;;-4.90;64.66;101219.50;10366236;28;20050;-78
2022/12/17 20:18:09;;;;;;;85.68;31.85;;;;;;;-4.87;65.11;101213.59;10366275;28;20062;-79
2022/12/17 20:23:10;;;;;;;78.85;30.42;;;;;;;-4.82;65.06;101217.97;10349497;28;20049;-78
2022/12/17 20:28:12;;;;;;;95.82;31.65;;;;;;;-5.05;64.58;101233.56;10360406;28;20062;-77
2022/12/17 20:33:15;;;;;;;79.22;30.92;;;;;;;-5.25;65.21;101227.13;10367868;28;20511;-78
2022/12/17 20:38:17;;;;;;;97.20;33.10;;;;;;;-5.19;65.38;101229.81;10371757;28;20057;-77
2022/12/17 20:43:19;;;;;;;77.95;31.30;;;;;;;-5.31;65.08;101227.84;10363721;28;20053;-78
2022/12/17 20:48:21;;;;;;;87.97;35.20;;;;;;;-5.40;65.26;101231.00;10365384;28;20058;-78
2022/12/17 20:53:24;;;;;;;75.68;32.08;;;;;;;-5.49;65.60;101230.81;10348091;28;20057;-78
2022/12/17 20:58:26;;;;;;;84.03;32.78;;;;;;;-5.33;65.67;101244.78;10347546;28;20049;-78
2022/12/17 21:03:28;;;;;;;77.95;30.60;;;;;;;-5.40;65.52;101241.22;10374755;28;20041;-78
2022/12/17 21:08:30;;;;;;;82.63;31.02;;;;;;;-5.23;65.54;101239.09;10373234;28;20061;-78
2022/12/17 21:13:33;;;;;;;89.32;32.10;;;;;;;-5.24;65.27;101246.72;10371678;28;20054;-79
2022/12/17 21:18:34;;;;;;;92.18;32.28;;;;;;;-5.43;65.56;101243.69;10368355;28;20514;-78
2022/12/17 21:23:37;;;;;;;75.22;30.80;;;;;;;-5.24;65.92;101260.31;10353061;28;20156;-78
2022/12/17 21:28:41;;;;;;;71.60;30.40;;;;;;;-5.09;65.21;101263.22;10369329;28;20419;-78
2022/12/17 21:33:46;;;;;;;87.72;30.42;;;;;;;-5.17;65.25;101266.41;10350940;28;20061;-78
2022/12/17 21:38:49;;;;;;;91.72;31.60;;;;;;;-5.47;65.12;101262.28;10351513;28;21075;-78
2022/12/17 21:43:53;;;;;;;90.60;32.38;;;;;;;-5.61;65.26;101267.84;10347687;28;20057;-78
2022/12/17 21:48:56;;;;;;;81.03;31.77;;;;;;;-5.47;65.35;101262.28;10358233;28;20422;-78
2022/12/17 21:54:01;;;;;;;77.90;31.20;;;;;;;-5.61;64.93;101268.72;10368978;28;20061;-78
2022/12/17 21:59:10;;;;;;;90.43;33.08;;;;;;;-5.91;65.39;101278.06;10372656;28;20431;-78
2022/12/17 22:04:12;;;;;;;74.07;31.35;;;;;;;-5.87;65.44;101276.47;10358241;28;20054;-78
2022/12/17 22:09:14;;;;;;;95.20;34.20;;;;;;;-5.86;65.28;101281.59;10376974;28;20053;-78
2022/12/17 22:14:28;;;;;;;73.65;30.05;;;;;;;-5.83;65.70;101279.16;10378650;28;20054;-78
2022/12/17 22:19:29;;;;;;;80.63;31.77;;;;;;;-5.99;65.40;101278.69;10374127;28;20057;-78
2022/12/17 22:24:31;;;;;;;77.22;30.40;;;;;;;-6.46;66.34;101280.69;10359884;28;20049;-78
2022/12/17 22:34:57;;;;;;;118.88;31.55;;;;;;;-6.17;65.68;101293.44;10377610;28;20054;-78
2022/12/17 22:40:20;;;;;;;71.85;30.15;;;;;;;-6.48;66.07;101292.50;10364643;28;20053;-79
2022/12/17 22:45:42;;;;;;;70.25;31.33;;;;;;;-6.50;66.41;101288.22;10372854;28;20387;-78
2022/12/17 22:50:43;;;;;;;94.82;33.28;;;;;;;-6.14;66.05;101289.28;10374259;28;20064;-78
2022/12/17 22:56:04;;;;;;;85.68;32.22;;;;;;;-6.39;65.73;101292.81;10376339;28;20061;-78
2022/12/17 23:01:22;;;;;;;82.57;32.50;;;;;;;-6.54;65.81;101289.78;10356216;28;20057;-77
2022/12/17 23:06:25;;;;;;;84.50;31.42;;;;;;;-6.38;65.98;101298.75;10373452;28;20438;-77
2022/12/17 23:11:28;;;;;;;73.03;30.70;;;;;;;-6.12;65.93;101292.75;10357392;28;20072;-78
2022/12/17 23:16:30;;;;;;;70.75;30.67;;;;;;;-5.94;65.42;101300.91;10376259;28;20065;-78
2022/12/17 23:21:32;;;;;;;76.03;30.92;;;;;;;-6.00;65.51;101299.88;10374305;28;20113;-77
2022/12/17 23:26:35;;;;;;;73.07;30.45;;;;;;;-5.97;65.17;101298.25;10374467;28;20064;-77
2022/12/17 23:31:39;;;;;;;74.47;31.38;;;;;;;-5.79;65.51;101298.81;10373578;28;20069;-78
2022/12/17 23:36:41;;;;;;;80.22;32.00;;;;;;;-5.95;65.07;101288.13;10370289;28;20136;-78
2022/12/17 23:41:45;;;;;;;73.18;31.30;;;;;;;-6.11;65.37;101284.28;10372222;28;20061;-78
2022/12/17 23:46:46;;;;;;;71.68;32.20;;;;;;;-5.93;65.38;101299.22;10373344;28;20427;-77
2022/12/17 23:51:48;;;;;;;72.90;32.30;;;;;;;-5.87;65.08;101296.84;10374891;28;20046;-76
2022/12/17 23:56:50;;;;;;;67.55;32.10;;;;;;;-5.75;65.17;101292.97;10362399;28;20624;-78
